sensor_id;sensor_type;location;lat;lon;timestamp;temperature;humidity
59075;DHT22;44860;53.020;6.738;2023-07-02T00:00:59;17.10;99.90
59075;DHT22;44860;53.020;6.738;2023-07-02T00:03:25;17.10;99.90
59075;DHT22;44860;53.020;6.738;2023-07-02T00:05:51;17.00;99.90
59075;DHT22;44860;53.020;6.738;2023-07-02T00:08:21;17.00;99.90
59075;DHT22;44860;53.020;6.738;2023-07-02T00:10:46;17.00;99.90
59075;DHT22;44860;53.020;6.738;2023-07-02T00:13:12;17.00;99.90
59075;DHT22;44860;53.020;6.738;2023-07-02T00:15:38;17.00;99.90
59075;DHT22;44860;53.020;6.738;2023-07-02T00:18:04;17.00;99.90
59075;DHT22;44860;53.020;6.738;2023-07-02T00:20:29;16.90;99.90
59075;DHT22;44860;53.020;6.738;2023-07-02T00:22:55;17.00;99.90
59075;DHT22;44860;53.020;6.738;2023-07-02T00:25:21;16.90;99.90
59075;DHT22;44860;53.020;6.738;2023-07-02T00:27:47;16.90;99.90
59075;DHT22;44860;53.020;6.738;2023-07-02T00:30:13;16.90;99.90
59075;DHT22;44860;53.020;6.738;2023-07-02T00:32:39;16.90;99.90
59075;DHT22;44860;53.020;6.738;2023-07-02T00:35:05;16.90;99.90
59075;DHT22;44860;53.020;6.738;2023-07-02T00:37:31;16.80;99.90
59075;DHT22;44860;53.020;6.738;2023-07-02T00:39:57;16.80;99.90
59075;DHT22;44860;53.020;6.738;2023-07-02T00:42:23;16.80;99.90
59075;DHT22;44860;53.020;6.738;2023-07-02T00:44:49;16.80;99.90
59075;DHT22;44860;53.020;6.738;2023-07-02T00:47:17;16.80;99.90
59075;DHT22;44860;53.020;6.738;2023-07-02T00:49:43;16.80;99.90
59075;DHT22;44860;53.020;6.738;2023-07-02T00:52:09;16.70;99.90
59075;DHT22;44860;53.020;6.738;2023-07-02T00:54:36;16.70;99.90
59075;DHT22;44860;53.020;6.738;2023-07-02T00:57:02;16.70;99.90
59075;DHT22;44860;53.020;6.738;2023-07-02T00:59:30;16.70;99.90
59075;DHT22;44860;53.020;6.738;2023-07-02T01:01:56;16.60;99.90
59075;DHT22;44860;53.020;6.738;2023-07-02T01:04:22;16.60;99.90
59075;DHT22;44860;53.020;6.738;2023-07-02T01:06:53;16.60;99.90
59075;DHT22;44860;53.020;6.738;2023-07-02T01:09:23;16.60;99.90
59075;DHT22;44860;53.020;6.738;2023-07-02T01:11:54;16.50;99.90
59075;DHT22;44860;53.020;6.738;2023-07-02T01:14:30;16.50;99.90
59075;DHT22;44860;53.020;6.738;2023-07-02T01:16:57;16.50;99.90
59075;DHT22;44860;53.020;6.738;2023-07-02T01:19:51;16.50;99.90
59075;DHT22;44860;53.020;6.738;2023-07-02T01:22:23;16.40;99.90
59075;DHT22;44860;53.020;6.738;2023-07-02T01:24:50;16.40;99.90
59075;DHT22;44860;53.020;6.738;2023-07-02T01:27:16;16.40;99.90
59075;DHT22;44860;53.020;6.738;2023-07-02T01:29:42;16.30;99.90
59075;DHT22;44860;53.020;6.738;2023-07-02T01:32:10;16.30;99.90
59075;DHT22;44860;53.020;6.738;2023-07-02T01:34:36;16.30;99.90
59075;DHT22;44860;53.020;6.738;2023-07-02T01:37:05;16.30;99.90
59075;DHT22;44860;53.020;6.738;2023-07-02T01:39:31;16.20;99.90
59075;DHT22;44860;53.020;6.738;2023-07-02T01:42:17;16.20;99.90
59075;DHT22;44860;53.020;6.738;2023-07-02T01:44:44;16.20;99.90
59075;DHT22;44860;53.020;6.738;2023-07-02T01:47:09;16.20;99.90
59075;DHT22;44860;53.020;6.738;2023-07-02T01:49:35;16.10;99.90
59075;DHT22;44860;53.020;6.738;2023-07-02T01:52:04;16.10;99.90
59075;DHT22;44860;53.020;6.738;2023-07-02T01:54:32;16.00;99.90
59075;DHT22;44860;53.020;6.738;2023-07-02T01:56:58;16.00;99.90
59075;DHT22;44860;53.020;6.738;2023-07-02T01:59:25;16.00;99.90
59075;DHT22;44860;53.020;6.738;2023-07-02T02:01:51;15.90;99.90
59075;DHT22;44860;53.020;6.738;2023-07-02T02:04:17;15.90;99.90
59075;DHT22;44860;53.020;6.738;2023-07-02T02:06:43;15.90;99.90
59075;DHT22;44860;53.020;6.738;2023-07-02T02:09:09;15.90;99.90
59075;DHT22;44860;53.020;6.738;2023-07-02T02:11:43;15.90;99.90
59075;DHT22;44860;53.020;6.738;2023-07-02T02:14:08;15.80;99.90
59075;DHT22;44860;53.020;6.738;2023-07-02T02:16:34;15.80;99.90
59075;DHT22;44860;53.020;6.738;2023-07-02T02:19:00;15.80;99.90
59075;DHT22;44860;53.020;6.738;2023-07-02T02:21:26;15.80;99.90
59075;DHT22;44860;53.020;6.738;2023-07-02T02:23:52;15.70;99.90
59075;DHT22;44860;53.020;6.738;2023-07-02T02:26:18;15.70;99.90
59075;DHT22;44860;53.020;6.738;2023-07-02T02:28:47;15.70;99.90
59075;DHT22;44860;53.020;6.738;2023-07-02T02:31:14;15.60;99.90
59075;DHT22;44860;53.020;6.738;2023-07-02T02:33:40;15.60;99.90
59075;DHT22;44860;53.020;6.738;2023-07-02T02:36:05;15.60;99.90
59075;DHT22;44860;53.020;6.738;2023-07-02T02:38:31;15.50;99.90
59075;DHT22;44860;53.020;6.738;2023-07-02T02:40:57;15.50;99.90
59075;DHT22;44860;53.020;6.738;2023-07-02T02:43:22;15.50;99.90
59075;DHT22;44860;53.020;6.738;2023-07-02T02:45:48;15.50;99.90
59075;DHT22;44860;53.020;6.738;2023-07-02T02:48:14;15.40;99.90
59075;DHT22;44860;53.020;6.738;2023-07-02T02:50:40;15.40;99.90
59075;DHT22;44860;53.020;6.738;2023-07-02T02:53:09;15.40;99.90
59075;DHT22;44860;53.020;6.738;2023-07-02T02:55:38;15.40;99.90
59075;DHT22;44860;53.020;6.738;2023-07-02T02:58:04;15.30;99.90
59075;DHT22;44860;53.020;6.738;2023-07-02T03:00:30;15.30;99.90
59075;DHT22;44860;53.020;6.738;2023-07-02T03:02:55;15.30;99.90
59075;DHT22;44860;53.020;6.738;2023-07-02T03:05:22;15.30;99.90
59075;DHT22;44860;53.020;6.738;2023-07-02T03:07:49;15.30;99.90
59075;DHT22;44860;53.020;6.738;2023-07-02T03:10:14;15.20;99.90
59075;DHT22;44860;53.020;6.738;2023-07-02T03:12:40;15.20;99.90
59075;DHT22;44860;53.020;6.738;2023-07-02T03:15:06;15.20;99.90
59075;DHT22;44860;53.020;6.738;2023-07-02T03:17:32;15.20;99.90
59075;DHT22;44860;53.020;6.738;2023-07-02T03:19:58;15.10;99.90
59075;DHT22;44860;53.020;6.738;2023-07-02T03:22:24;15.10;99.90
59075;DHT22;44860;53.020;6.738;2023-07-02T03:24:49;15.10;99.90
59075;DHT22;44860;53.020;6.738;2023-07-02T03:27:15;15.10;99.90
59075;DHT22;44860;53.020;6.738;2023-07-02T03:29:41;15.00;99.90
59075;DHT22;44860;53.020;6.738;2023-07-02T03:32:07;15.00;99.90
59075;DHT22;44860;53.020;6.738;2023-07-02T03:34:32;15.00;99.90
59075;DHT22;44860;53.020;6.738;2023-07-02T03:36:58;15.00;99.90
59075;DHT22;44860;53.020;6.738;2023-07-02T03:39:24;14.90;99.90
59075;DHT22;44860;53.020;6.738;2023-07-02T03:41:49;14.90;99.90
59075;DHT22;44860;53.020;6.738;2023-07-02T03:44:15;14.90;99.90
59075;DHT22;44860;53.020;6.738;2023-07-02T03:46:41;14.80;99.90
59075;DHT22;44860;53.020;6.738;2023-07-02T03:49:06;14.90;99.90
59075;DHT22;44860;53.020;6.738;2023-07-02T03:51:32;14.80;99.90
59075;DHT22;44860;53.020;6.738;2023-07-02T03:54:01;14.80;99.90
59075;DHT22;44860;53.020;6.738;2023-07-02T03:56:26;14.80;99.90
59075;DHT22;44860;53.020;6.738;2023-07-02T03:58:55;14.80;99.90
59075;DHT22;44860;53.020;6.738;2023-07-02T04:01:21;14.80;99.90
59075;DHT22;44860;53.020;6.738;2023-07-02T04:03:52;14.80;99.90
59075;DHT22;44860;53.020;6.738;2023-07-02T04:06:18;14.70;99.90
59075;DHT22;44860;53.020;6.738;2023-07-02T04:08:44;14.80;99.90
59075;DHT22;44860;53.020;6.738;2023-07-02T04:11:11;14.70;99.90
59075;DHT22;44860;53.020;6.738;2023-07-02T04:13:37;14.70;99.90
59075;DHT22;44860;53.020;6.738;2023-07-02T04:16:03;14.70;99.90
59075;DHT22;44860;53.020;6.738;2023-07-02T04:18:29;14.70;99.90
59075;DHT22;44860;53.020;6.738;2023-07-02T04:20:56;14.70;99.90
59075;DHT22;44860;53.020;6.738;2023-07-02T04:23:21;14.70;99.90
59075;DHT22;44860;53.020;6.738;2023-07-02T04:25:47;14.70;99.90
59075;DHT22;44860;53.020;6.738;2023-07-02T04:28:13;14.70;99.90
59075;DHT22;44860;53.020;6.738;2023-07-02T04:30:38;14.70;99.90
59075;DHT22;44860;53.020;6.738;2023-07-02T04:33:04;14.70;99.90
59075;DHT22;44860;53.020;6.738;2023-07-02T04:35:31;14.70;99.90
59075;DHT22;44860;53.020;6.738;2023-07-02T04:37:57;14.70;99.90
59075;DHT22;44860;53.020;6.738;2023-07-02T04:40:24;14.70;99.90
59075;DHT22;44860;53.020;6.738;2023-07-02T04:42:49;14.80;99.90
59075;DHT22;44860;53.020;6.738;2023-07-02T04:45:23;14.80;99.90
59075;DHT22;44860;53.020;6.738;2023-07-02T04:47:49;14.80;99.90
59075;DHT22;44860;53.020;6.738;2023-07-02T04:50:15;14.80;99.90
59075;DHT22;44860;53.020;6.738;2023-07-02T04:52:41;14.80;99.90
59075;DHT22;44860;53.020;6.738;2023-07-02T04:55:07;14.80;99.90
59075;DHT22;44860;53.020;6.738;2023-07-02T04:57:33;14.80;99.90
59075;DHT22;44860;53.020;6.738;2023-07-02T04:59:58;14.80;99.90
59075;DHT22;44860;53.020;6.738;2023-07-02T05:02:24;14.80;99.90
59075;DHT22;44860;53.020;6.738;2023-07-02T05:04:50;14.80;99.90
59075;DHT22;44860;53.020;6.738;2023-07-02T05:07:18;14.80;99.90
59075;DHT22;44860;53.020;6.738;2023-07-02T05:09:44;14.80;99.90
59075;DHT22;44860;53.020;6.738;2023-07-02T05:12:10;14.90;99.90
59075;DHT22;44860;53.020;6.738;2023-07-02T05:14:36;14.90;99.90
59075;DHT22;44860;53.020;6.738;2023-07-02T05:17:03;14.90;99.90
59075;DHT22;44860;53.020;6.738;2023-07-02T05:19:29;15.00;99.90
59075;DHT22;44860;53.020;6.738;2023-07-02T05:21:54;15.00;99.90
59075;DHT22;44860;53.020;6.738;2023-07-02T05:24:20;15.00;99.90
59075;DHT22;44860;53.020;6.738;2023-07-02T05:26:46;15.00;99.90
59075;DHT22;44860;53.020;6.738;2023-07-02T05:29:12;15.10;99.90
59075;DHT22;44860;53.020;6.738;2023-07-02T05:31:39;15.10;99.90
59075;DHT22;44860;53.020;6.738;2023-07-02T05:34:04;15.20;99.90
59075;DHT22;44860;53.020;6.738;2023-07-02T05:36:30;15.20;99.90
59075;DHT22;44860;53.020;6.738;2023-07-02T05:38:56;15.20;99.90
59075;DHT22;44860;53.020;6.738;2023-07-02T05:41:22;15.30;99.90
59075;DHT22;44860;53.020;6.738;2023-07-02T05:43:48;15.30;99.90
59075;DHT22;44860;53.020;6.738;2023-07-02T05:46:14;15.40;99.90
59075;DHT22;44860;53.020;6.738;2023-07-02T05:48:41;15.40;99.90
59075;DHT22;44860;53.020;6.738;2023-07-02T05:51:07;15.40;99.90
59075;DHT22;44860;53.020;6.738;2023-07-02T05:53:33;15.50;99.90
59075;DHT22;44860;53.020;6.738;2023-07-02T05:55:59;15.60;99.90
59075;DHT22;44860;53.020;6.738;2023-07-02T05:58:25;15.60;99.90
59075;DHT22;44860;53.020;6.738;2023-07-02T06:00:50;15.70;99.90
59075;DHT22;44860;53.020;6.738;2023-07-02T06:03:17;15.70;99.90
59075;DHT22;44860;53.020;6.738;2023-07-02T06:05:49;15.80;99.90
59075;DHT22;44860;53.020;6.738;2023-07-02T06:08:16;15.90;99.90
59075;DHT22;44860;53.020;6.738;2023-07-02T06:10:43;15.90;99.90
59075;DHT22;44860;53.020;6.738;2023-07-02T06:13:09;15.90;99.90
59075;DHT22;44860;53.020;6.738;2023-07-02T06:15:35;16.00;99.90
59075;DHT22;44860;53.020;6.738;2023-07-02T06:18:00;16.10;99.90
59075;DHT22;44860;53.020;6.738;2023-07-02T06:20:26;16.10;99.90
59075;DHT22;44860;53.020;6.738;2023-07-02T06:22:52;16.20;99.90
59075;DHT22;44860;53.020;6.738;2023-07-02T06:25:17;16.20;99.90
59075;DHT22;44860;53.020;6.738;2023-07-02T06:27:43;16.30;99.90
59075;DHT22;44860;53.020;6.738;2023-07-02T06:30:09;16.30;99.90
59075;DHT22;44860;53.020;6.738;2023-07-02T06:32:35;16.40;99.90
59075;DHT22;44860;53.020;6.738;2023-07-02T06:35:00;16.40;99.90
59075;DHT22;44860;53.020;6.738;2023-07-02T06:37:26;16.40;99.90
59075;DHT22;44860;53.020;6.738;2023-07-02T06:39:52;16.50;99.90
59075;DHT22;44860;53.020;6.738;2023-07-02T06:42:17;16.60;99.90
59075;DHT22;44860;53.020;6.738;2023-07-02T06:44:43;16.60;99.90
59075;DHT22;44860;53.020;6.738;2023-07-02T06:47:09;16.60;99.90
59075;DHT22;44860;53.020;6.738;2023-07-02T06:49:34;16.70;99.90
59075;DHT22;44860;53.020;6.738;2023-07-02T06:52:00;16.70;99.90
59075;DHT22;44860;53.020;6.738;2023-07-02T06:54:26;16.80;99.90
59075;DHT22;44860;53.020;6.738;2023-07-02T06:56:52;16.80;99.90
59075;DHT22;44860;53.020;6.738;2023-07-02T06:59:24;16.90;99.90
59075;DHT22;44860;53.020;6.738;2023-07-02T07:01:50;17.00;99.90
59075;DHT22;44860;53.020;6.738;2023-07-02T07:04:16;17.00;99.90
59075;DHT22;44860;53.020;6.738;2023-07-02T07:06:42;17.10;99.90
59075;DHT22;44860;53.020;6.738;2023-07-02T07:09:08;17.10;99.90
59075;DHT22;44860;53.020;6.738;2023-07-02T07:11:35;17.10;99.90
59075;DHT22;44860;53.020;6.738;2023-07-02T07:14:00;17.10;99.90
59075;DHT22;44860;53.020;6.738;2023-07-02T07:16:26;17.20;99.90
59075;DHT22;44860;53.020;6.738;2023-07-02T07:18:52;17.20;99.90
59075;DHT22;44860;53.020;6.738;2023-07-02T07:21:18;17.30;99.90
59075;DHT22;44860;53.020;6.738;2023-07-02T07:23:43;17.30;99.90
59075;DHT22;44860;53.020;6.738;2023-07-02T07:26:09;17.40;99.90
59075;DHT22;44860;53.020;6.738;2023-07-02T07:28:35;17.40;99.90
59075;DHT22;44860;53.020;6.738;2023-07-02T07:31:01;17.40;99.90
59075;DHT22;44860;53.020;6.738;2023-07-02T07:33:26;17.40;99.90
59075;DHT22;44860;53.020;6.738;2023-07-02T07:35:52;17.40;99.90
59075;DHT22;44860;53.020;6.738;2023-07-02T07:38:18;17.50;99.90
59075;DHT22;44860;53.020;6.738;2023-07-02T07:40:44;17.40;99.70
59075;DHT22;44860;53.020;6.738;2023-07-02T07:43:09;17.50;99.20
59075;DHT22;44860;53.020;6.738;2023-07-02T07:45:35;17.50;98.50
59075;DHT22;44860;53.020;6.738;2023-07-02T07:48:01;17.60;97.40
59075;DHT22;44860;53.020;6.738;2023-07-02T07:50:27;17.60;97.60
59075;DHT22;44860;53.020;6.738;2023-07-02T07:52:53;17.60;96.20
59075;DHT22;44860;53.020;6.738;2023-07-02T07:55:19;17.60;96.20
59075;DHT22;44860;53.020;6.738;2023-07-02T07:57:44;17.70;95.00
59075;DHT22;44860;53.020;6.738;2023-07-02T08:00:10;17.70;94.90
59075;DHT22;44860;53.020;6.738;2023-07-02T08:02:37;17.80;93.90
59075;DHT22;44860;53.020;6.738;2023-07-02T08:05:03;17.80;93.90
59075;DHT22;44860;53.020;6.738;2023-07-02T08:07:33;17.80;93.00
59075;DHT22;44860;53.020;6.738;2023-07-02T08:09:59;17.80;92.70
59075;DHT22;44860;53.020;6.738;2023-07-02T08:12:25;17.80;91.50
59075;DHT22;44860;53.020;6.738;2023-07-02T08:14:53;17.70;90.60
59075;DHT22;44860;53.020;6.738;2023-07-02T08:17:18;17.70;90.80
59075;DHT22;44860;53.020;6.738;2023-07-02T08:19:44;17.70;91.20
59075;DHT22;44860;53.020;6.738;2023-07-02T08:22:10;17.70;92.40
59075;DHT22;44860;53.020;6.738;2023-07-02T08:24:35;17.80;92.70
59075;DHT22;44860;53.020;6.738;2023-07-02T08:27:01;17.80;93.70
59075;DHT22;44860;53.020;6.738;2023-07-02T08:29:29;17.80;94.40
59075;DHT22;44860;53.020;6.738;2023-07-02T08:31:55;17.80;94.60
59075;DHT22;44860;53.020;6.738;2023-07-02T08:34:21;17.90;94.70
59075;DHT22;44860;53.020;6.738;2023-07-02T08:36:47;17.90;94.00
59075;DHT22;44860;53.020;6.738;2023-07-02T08:39:13;17.90;94.50
59075;DHT22;44860;53.020;6.738;2023-07-02T08:41:48;17.90;94.90
59075;DHT22;44860;53.020;6.738;2023-07-02T08:44:16;18.00;94.10
59075;DHT22;44860;53.020;6.738;2023-07-02T08:46:44;18.00;93.40
59075;DHT22;44860;53.020;6.738;2023-07-02T08:49:12;18.00;92.90
59075;DHT22;44860;53.020;6.738;2023-07-02T08:51:37;18.00;92.30
59075;DHT22;44860;53.020;6.738;2023-07-02T08:54:03;18.00;91.40
59075;DHT22;44860;53.020;6.738;2023-07-02T08:56:30;18.00;91.20
59075;DHT22;44860;53.020;6.738;2023-07-02T08:58:56;18.00;91.60
59075;DHT22;44860;53.020;6.738;2023-07-02T09:01:22;18.00;91.70
59075;DHT22;44860;53.020;6.738;2023-07-02T09:03:49;18.00;92.10
59075;DHT22;44860;53.020;6.738;2023-07-02T09:06:18;18.10;92.30
59075;DHT22;44860;53.020;6.738;2023-07-02T09:08:44;18.10;92.30
59075;DHT22;44860;53.020;6.738;2023-07-02T09:11:14;18.10;92.30
59075;DHT22;44860;53.020;6.738;2023-07-02T09:13:51;18.20;91.50
59075;DHT22;44860;53.020;6.738;2023-07-02T09:16:31;18.20;90.90
59075;DHT22;44860;53.020;6.738;2023-07-02T09:19:06;18.30;91.80
59075;DHT22;44860;53.020;6.738;2023-07-02T09:24:32;18.40;90.50
59075;DHT22;44860;53.020;6.738;2023-07-02T09:26:59;18.40;90.70
59075;DHT22;44860;53.020;6.738;2023-07-02T09:29:33;18.40;90.90
59075;DHT22;44860;53.020;6.738;2023-07-02T09:31:59;18.40;91.60
59075;DHT22;44860;53.020;6.738;2023-07-02T09:34:29;18.40;92.40
59075;DHT22;44860;53.020;6.738;2023-07-02T09:36:56;18.40;92.60
59075;DHT22;44860;53.020;6.738;2023-07-02T09:39:26;18.40;93.30
59075;DHT22;44860;53.020;6.738;2023-07-02T09:41:53;18.40;93.20
59075;DHT22;44860;53.020;6.738;2023-07-02T09:44:20;18.40;93.70
59075;DHT22;44860;53.020;6.738;2023-07-02T09:46:56;18.40;94.30
59075;DHT22;44860;53.020;6.738;2023-07-02T09:49:24;18.40;95.00
59075;DHT22;44860;53.020;6.738;2023-07-02T09:51:51;18.30;95.70
59075;DHT22;44860;53.020;6.738;2023-07-02T09:54:17;18.30;96.60
59075;DHT22;44860;53.020;6.738;2023-07-02T09:56:46;18.30;96.90
59075;DHT22;44860;53.020;6.738;2023-07-02T09:59:13;18.30;97.70
59075;DHT22;44860;53.020;6.738;2023-07-02T10:01:39;18.20;98.30
59075;DHT22;44860;53.020;6.738;2023-07-02T10:04:15;18.20;99.20
59075;DHT22;44860;53.020;6.738;2023-07-02T10:06:48;18.20;99.90
59075;DHT22;44860;53.020;6.738;2023-07-02T10:09:15;18.20;99.90
59075;DHT22;44860;53.020;6.738;2023-07-02T10:11:42;18.20;99.80
59075;DHT22;44860;53.020;6.738;2023-07-02T10:14:07;18.30;98.70
59075;DHT22;44860;53.020;6.738;2023-07-02T10:16:33;18.30;98.60
59075;DHT22;44860;53.020;6.738;2023-07-02T10:19:12;18.40;98.00
59075;DHT22;44860;53.020;6.738;2023-07-02T10:21:38;18.40;96.80
59075;DHT22;44860;53.020;6.738;2023-07-02T10:24:14;18.50;96.00
59075;DHT22;44860;53.020;6.738;2023-07-02T10:26:54;18.50;94.90
59075;DHT22;44860;53.020;6.738;2023-07-02T10:29:25;18.50;94.60
59075;DHT22;44860;53.020;6.738;2023-07-02T10:31:53;18.60;94.30
59075;DHT22;44860;53.020;6.738;2023-07-02T10:34:29;18.60;93.50
59075;DHT22;44860;53.020;6.738;2023-07-02T10:36:55;18.70;93.00
59075;DHT22;44860;53.020;6.738;2023-07-02T10:39:22;18.80;92.20
59075;DHT22;44860;53.020;6.738;2023-07-02T10:41:47;18.80;91.40
59075;DHT22;44860;53.020;6.738;2023-07-02T10:44:13;18.90;91.00
59075;DHT22;44860;53.020;6.738;2023-07-02T10:46:46;19.00;90.40
59075;DHT22;44860;53.020;6.738;2023-07-02T10:49:11;19.00;88.80
59075;DHT22;44860;53.020;6.738;2023-07-02T10:51:38;19.10;86.90
59075;DHT22;44860;53.020;6.738;2023-07-02T10:54:04;19.10;84.40
59075;DHT22;44860;53.020;6.738;2023-07-02T10:56:31;19.20;82.20
59075;DHT22;44860;53.020;6.738;2023-07-02T10:58:57;19.30;81.80
59075;DHT22;44860;53.020;6.738;2023-07-02T11:01:27;19.40;79.90
59075;DHT22;44860;53.020;6.738;2023-07-02T11:04:03;19.50;77.10
59075;DHT22;44860;53.020;6.738;2023-07-02T11:06:31;19.60;75.20
59075;DHT22;44860;53.020;6.738;2023-07-02T11:08:58;19.60;72.60
59075;DHT22;44860;53.020;6.738;2023-07-02T11:11:25;19.70;69.30
59075;DHT22;44860;53.020;6.738;2023-07-02T11:13:52;19.80;68.50
59075;DHT22;44860;53.020;6.738;2023-07-02T11:16:28;19.80;69.60
59075;DHT22;44860;53.020;6.738;2023-07-02T11:19:06;19.90;68.50
59075;DHT22;44860;53.020;6.738;2023-07-02T11:21:36;19.90;67.30
59075;DHT22;44860;53.020;6.738;2023-07-02T11:24:07;20.00;67.10
59075;DHT22;44860;53.020;6.738;2023-07-02T11:26:40;20.00;66.50
59075;DHT22;44860;53.020;6.738;2023-07-02T11:29:12;20.00;63.80
59075;DHT22;44860;53.020;6.738;2023-07-02T11:31:43;20.00;66.00
59075;DHT22;44860;53.020;6.738;2023-07-02T11:34:13;20.00;66.30
59075;DHT22;44860;53.020;6.738;2023-07-02T11:36:39;20.10;63.60
59075;DHT22;44860;53.020;6.738;2023-07-02T11:39:04;20.10;64.80
59075;DHT22;44860;53.020;6.738;2023-07-02T11:41:38;20.10;65.30
59075;DHT22;44860;53.020;6.738;2023-07-02T11:44:04;20.10;63.30
59075;DHT22;44860;53.020;6.738;2023-07-02T11:46:29;20.10;63.10
59075;DHT22;44860;53.020;6.738;2023-07-02T11:48:55;20.20;62.10
59075;DHT22;44860;53.020;6.738;2023-07-02T11:51:21;20.10;61.70
59075;DHT22;44860;53.020;6.738;2023-07-02T11:53:47;20.10;59.80
59075;DHT22;44860;53.020;6.738;2023-07-02T11:56:12;20.10;56.30
59075;DHT22;44860;53.020;6.738;2023-07-02T11:58:39;20.10;58.50
59075;DHT22;44860;53.020;6.738;2023-07-02T12:01:05;20.10;60.00
59075;DHT22;44860;53.020;6.738;2023-07-02T12:03:31;20.10;60.80
59075;DHT22;44860;53.020;6.738;2023-07-02T12:05:56;20.20;61.90
59075;DHT22;44860;53.020;6.738;2023-07-02T12:08:22;20.20;61.50
59075;DHT22;44860;53.020;6.738;2023-07-02T12:10:48;20.20;61.40
59075;DHT22;44860;53.020;6.738;2023-07-02T12:13:14;20.30;60.80
59075;DHT22;44860;53.020;6.738;2023-07-02T12:15:40;20.20;60.70
59075;DHT22;44860;53.020;6.738;2023-07-02T12:18:06;20.30;60.60
59075;DHT22;44860;53.020;6.738;2023-07-02T12:20:32;20.30;61.30
59075;DHT22;44860;53.020;6.738;2023-07-02T12:22:58;20.40;61.10
59075;DHT22;44860;53.020;6.738;2023-07-02T12:25:23;20.50;61.50
59075;DHT22;44860;53.020;6.738;2023-07-02T12:27:49;20.50;58.20
59075;DHT22;44860;53.020;6.738;2023-07-02T12:30:15;20.60;57.10
59075;DHT22;44860;53.020;6.738;2023-07-02T12:32:43;20.70;54.10
59075;DHT22;44860;53.020;6.738;2023-07-02T12:35:10;20.60;53.10
59075;DHT22;44860;53.020;6.738;2023-07-02T12:37:45;20.60;53.50
59075;DHT22;44860;53.020;6.738;2023-07-02T12:40:11;20.70;53.80
59075;DHT22;44860;53.020;6.738;2023-07-02T12:42:37;20.70;54.10
59075;DHT22;44860;53.020;6.738;2023-07-02T12:45:05;20.70;53.60
59075;DHT22;44860;53.020;6.738;2023-07-02T12:47:30;20.70;52.50
59075;DHT22;44860;53.020;6.738;2023-07-02T12:49:56;20.70;52.10
59075;DHT22;44860;53.020;6.738;2023-07-02T12:52:22;20.70;49.70
59075;DHT22;44860;53.020;6.738;2023-07-02T12:54:47;20.60;49.70
59075;DHT22;44860;53.020;6.738;2023-07-02T12:57:13;20.60;49.80
59075;DHT22;44860;53.020;6.738;2023-07-02T12:59:39;20.60;49.70
59075;DHT22;44860;53.020;6.738;2023-07-02T13:02:05;20.50;50.20
59075;DHT22;44860;53.020;6.738;2023-07-02T13:04:31;20.50;50.80
59075;DHT22;44860;53.020;6.738;2023-07-02T13:06:57;20.50;51.00
59075;DHT22;44860;53.020;6.738;2023-07-02T13:09:22;20.50;50.90
59075;DHT22;44860;53.020;6.738;2023-07-02T13:11:48;20.50;50.90
59075;DHT22;44860;53.020;6.738;2023-07-02T13:14:13;20.50;50.10
59075;DHT22;44860;53.020;6.738;2023-07-02T13:16:39;20.50;50.70
59075;DHT22;44860;53.020;6.738;2023-07-02T13:19:05;20.40;50.50
59075;DHT22;44860;53.020;6.738;2023-07-02T13:21:31;20.40;50.60
59075;DHT22;44860;53.020;6.738;2023-07-02T13:23:56;20.40;50.50
59075;DHT22;44860;53.020;6.738;2023-07-02T13:26:22;20.30;50.50
59075;DHT22;44860;53.020;6.738;2023-07-02T13:28:48;20.30;50.30
59075;DHT22;44860;53.020;6.738;2023-07-02T13:31:16;20.20;50.30
59075;DHT22;44860;53.020;6.738;2023-07-02T13:33:42;20.10;50.40
59075;DHT22;44860;53.020;6.738;2023-07-02T13:36:08;20.10;50.50
59075;DHT22;44860;53.020;6.738;2023-07-02T13:38:34;20.10;51.50
59075;DHT22;44860;53.020;6.738;2023-07-02T13:41:00;20.10;52.20
59075;DHT22;44860;53.020;6.738;2023-07-02T13:43:26;20.00;53.50
59075;DHT22;44860;53.020;6.738;2023-07-02T13:45:52;20.00;54.30
59075;DHT22;44860;53.020;6.738;2023-07-02T13:48:17;19.90;55.10
59075;DHT22;44860;53.020;6.738;2023-07-02T13:50:43;19.90;55.40
59075;DHT22;44860;53.020;6.738;2023-07-02T13:53:09;19.90;54.90
59075;DHT22;44860;53.020;6.738;2023-07-02T13:55:34;19.90;54.40
59075;DHT22;44860;53.020;6.738;2023-07-02T13:58:00;19.90;52.10
59075;DHT22;44860;53.020;6.738;2023-07-02T14:00:27;19.80;50.80
59075;DHT22;44860;53.020;6.738;2023-07-02T14:02:52;19.80;50.20
59075;DHT22;44860;53.020;6.738;2023-07-02T14:05:19;19.80;49.00
59075;DHT22;44860;53.020;6.738;2023-07-02T14:07:44;19.80;48.90
59075;DHT22;44860;53.020;6.738;2023-07-02T14:10:11;19.80;47.30
59075;DHT22;44860;53.020;6.738;2023-07-02T14:12:38;19.70;44.60
59075;DHT22;44860;53.020;6.738;2023-07-02T14:15:05;19.80;44.50
59075;DHT22;44860;53.020;6.738;2023-07-02T14:17:30;19.80;43.90
59075;DHT22;44860;53.020;6.738;2023-07-02T14:19:56;19.70;43.20
59075;DHT22;44860;53.020;6.738;2023-07-02T14:22:22;19.80;41.40
59075;DHT22;44860;53.020;6.738;2023-07-02T14:24:47;19.80;41.70
59075;DHT22;44860;53.020;6.738;2023-07-02T14:27:13;19.80;41.70
59075;DHT22;44860;53.020;6.738;2023-07-02T14:29:39;19.80;41.70
59075;DHT22;44860;53.020;6.738;2023-07-02T14:32:05;19.90;41.80
59075;DHT22;44860;53.020;6.738;2023-07-02T14:34:31;19.90;41.90
59075;DHT22;44860;53.020;6.738;2023-07-02T14:36:58;19.90;42.10
59075;DHT22;44860;53.020;6.738;2023-07-02T14:39:24;19.90;42.50
59075;DHT22;44860;53.020;6.738;2023-07-02T14:41:50;20.00;42.20
59075;DHT22;44860;53.020;6.738;2023-07-02T14:44:16;20.00;42.80
59075;DHT22;44860;53.020;6.738;2023-07-02T14:46:43;20.20;43.20
59075;DHT22;44860;53.020;6.738;2023-07-02T14:49:09;20.20;43.00
59075;DHT22;44860;53.020;6.738;2023-07-02T14:51:35;20.30;42.60
59075;DHT22;44860;53.020;6.738;2023-07-02T14:54:01;20.40;42.80
59075;DHT22;44860;53.020;6.738;2023-07-02T14:56:31;20.40;42.80
59075;DHT22;44860;53.020;6.738;2023-07-02T14:58:57;20.50;42.80
59075;DHT22;44860;53.020;6.738;2023-07-02T15:01:23;20.60;42.70
59075;DHT22;44860;53.020;6.738;2023-07-02T15:03:48;20.60;41.50
59075;DHT22;44860;53.020;6.738;2023-07-02T15:06:16;20.60;42.10
59075;DHT22;44860;53.020;6.738;2023-07-02T15:08:43;20.80;43.10
59075;DHT22;44860;53.020;6.738;2023-07-02T15:11:10;20.90;41.30
59075;DHT22;44860;53.020;6.738;2023-07-02T15:13:38;20.90;40.10
59075;DHT22;44860;53.020;6.738;2023-07-02T15:16:05;20.90;39.90
59075;DHT22;44860;53.020;6.738;2023-07-02T15:18:31;20.90;39.90
59075;DHT22;44860;53.020;6.738;2023-07-02T15:20:57;20.90;39.60
59075;DHT22;44860;53.020;6.738;2023-07-02T15:23:23;20.90;39.20
59075;DHT22;44860;53.020;6.738;2023-07-02T15:26:03;20.80;38.30
59075;DHT22;44860;53.020;6.738;2023-07-02T15:28:30;20.70;39.00
59075;DHT22;44860;53.020;6.738;2023-07-02T15:31:02;20.60;39.20